Time;durP1;ratioP1;P1;durP2;ratioP2;P2;SDS_P1;SDS_P2;PMS_P1;PMS_P2;Temp;Humidity;BMP_temperature;BMP_pressure;BME280_temperature;BME280_humidity;BME280_pressure;Samples;Min_cycle;Max_cycle;Signal;HPM_P1;HPM_P2
2023/09/11 00:01:19;;;;;;;7.57;3.70;;;;;;;17.38;100.00;101084.81;5053580;28;20525;-69
2023/09/11 00:03:45;;;;;;;6.57;3.23;;;;;;;17.37;100.00;101084.00;5053424;28;20529;-69
2023/09/11 00:06:12;;;;;;;6.67;3.03;;;;;;;17.35;100.00;101086.31;5053233;28;20569;-69
2023/09/11 00:08:39;;;;;;;9.90;3.30;;;;;;;17.31;100.00;101084.53;5053682;28;20444;-69
2023/09/11 00:11:05;;;;;;;5.60;2.37;;;;;;;17.33;100.00;101079.53;5053243;28;20485;-70
2023/09/11 00:13:33;;;;;;;7.83;3.37;;;;;;;17.29;100.00;101076.66;5053410;28;20515;-70
2023/09/11 00:16:00;;;;;;;5.37;3.50;;;;;;;17.25;100.00;101070.25;5052985;28;20541;-70
2023/09/11 00:18:27;;;;;;;4.93;2.70;;;;;;;17.24;100.00;101076.88;5053006;28;20446;-70
2023/09/11 00:20:54;;;;;;;5.40;2.80;;;;;;;17.23;100.00;101075.28;5053306;28;20469;-70
2023/09/11 00:23:20;;;;;;;6.70;3.23;;;;;;;17.22;100.00;101062.72;5053331;28;20442;-70
2023/09/11 00:25:47;;;;;;;5.63;2.57;;;;;;;17.21;100.00;101063.84;5052831;28;21001;-70
2023/09/11 00:28:13;;;;;;;8.00;3.73;;;;;;;17.20;100.00;101062.25;5053213;28;20529;-70
2023/09/11 00:30:42;;;;;;;6.60;3.40;;;;;;;17.20;100.00;101061.44;5052882;28;20934;-70
2023/09/11 00:33:09;;;;;;;5.90;3.00;;;;;;;17.21;100.00;101057.56;5053160;28;20434;-70
2023/09/11 00:35:36;;;;;;;3.90;2.10;;;;;;;17.19;100.00;101057.91;5053152;28;20524;-70
2023/09/11 00:38:03;;;;;;;4.90;2.90;;;;;;;17.14;100.00;101052.63;5052939;28;20930;-70
2023/09/11 00:40:30;;;;;;;5.53;2.23;;;;;;;17.11;100.00;101054.09;5053075;28;20438;-69
2023/09/11 00:42:56;;;;;;;5.23;2.40;;;;;;;17.09;100.00;101048.16;5053143;28;20525;-69
2023/09/11 00:45:24;;;;;;;6.20;3.53;;;;;;;17.06;100.00;101043.34;5053018;28;20486;-69
2023/09/11 00:47:52;;;;;;;5.37;2.73;;;;;;;17.03;100.00;101041.28;5054219;28;20873;-69
2023/09/11 00:50:19;;;;;;;5.03;2.83;;;;;;;16.99;100.00;101043.06;5056886;28;20434;-69
2023/09/11 00:52:47;;;;;;;6.50;3.50;;;;;;;16.95;100.00;101039.38;5056602;28;20888;-69
2023/09/11 00:55:13;;;;;;;6.47;2.87;;;;;;;16.94;100.00;101042.47;5056365;28;20472;-69
2023/09/11 00:57:40;;;;;;;4.57;2.57;;;;;;;16.95;100.00;101033.91;5056391;28;20973;-69
2023/09/11 01:00:09;;;;;;;5.27;3.27;;;;;;;16.92;100.00;101044.75;5056664;28;20446;-69
2023/09/11 01:02:36;;;;;;;5.43;2.83;;;;;;;16.92;100.00;101034.59;5056672;28;20805;-69
2023/09/11 01:05:07;;;;;;;6.70;2.93;;;;;;;16.92;100.00;101028.34;5056618;28;20469;-69
2023/09/11 01:07:34;;;;;;;4.53;2.60;;;;;;;16.88;100.00;101031.72;5056379;28;20871;-69
2023/09/11 01:10:05;;;;;;;6.93;3.57;;;;;;;16.85;100.00;101026.09;5056358;28;20468;-69
2023/09/11 01:12:32;;;;;;;5.00;2.67;;;;;;;16.86;100.00;101033.97;5056685;28;20430;-69
2023/09/11 01:14:59;;;;;;;6.47;2.90;;;;;;;16.83;100.00;101026.44;5056305;28;21042;-69
2023/09/11 01:17:35;;;;;;;6.60;3.00;;;;;;;16.79;100.00;101028.25;5056561;28;20454;-69
2023/09/11 01:20:35;;;;;;;5.60;2.47;;;;;;;16.80;100.00;101020.84;5056271;28;20513;-70
2023/09/11 01:23:28;;;;;;;4.83;2.93;;;;;;;16.77;100.00;101025.03;5038560;28;20930;-70
2023/09/11 01:26:08;;;;;;;5.00;2.47;;;;;;;16.75;100.00;101021.84;5056359;28;20569;-70
2023/09/11 01:28:58;;;;;;;5.97;2.93;;;;;;;16.72;100.00;101019.75;5056341;28;20518;-69
2023/09/11 01:31:27;;;;;;;5.77;2.77;;;;;;;16.68;100.00;101007.84;5055851;28;20453;-69
2023/09/11 01:33:54;;;;;;;5.27;2.80;;;;;;;16.69;100.00;101019.56;5056427;28;20525;-69
2023/09/11 01:36:20;;;;;;;6.10;3.10;;;;;;;16.71;100.00;101015.38;5055739;28;20820;-69
2023/09/11 01:38:47;;;;;;;5.57;2.83;;;;;;;16.69;100.00;101014.09;5056109;28;20435;-69
2023/09/11 01:41:16;;;;;;;3.93;2.20;;;;;;;16.64;100.00;101015.09;5055903;28;20523;-70
2023/09/11 01:43:46;;;;;;;5.33;2.20;;;;;;;16.66;100.00;101012.84;5055906;28;20484;-69
2023/09/11 01:46:16;;;;;;;8.60;3.30;;;;;;;16.63;100.00;101006.09;5055736;28;20577;-70
2023/09/11 01:48:44;;;;;;;5.77;2.83;;;;;;;16.61;100.00;101002.09;5055850;28;20439;-69
2023/09/11 01:51:13;;;;;;;5.13;2.93;;;;;;;16.57;100.00;101006.63;5055593;28;20442;-69
2023/09/11 01:53:41;;;;;;;5.60;3.10;;;;;;;16.56;100.00;101002.31;5055373;28;20545;-69
2023/09/11 01:56:09;;;;;;;5.47;2.90;;;;;;;16.55;100.00;100997.94;5055380;28;20890;-69
2023/09/11 01:58:35;;;;;;;4.90;3.23;;;;;;;16.52;100.00;100998.63;5054412;28;20448;-69
2023/09/11 02:01:02;;;;;;;4.90;2.77;;;;;;;16.52;100.00;100993.16;5055852;28;20529;-69
2023/09/11 02:03:30;;;;;;;6.33;2.63;;;;;;;16.50;100.00;100996.19;5055732;28;20890;-69
2023/09/11 02:05:57;;;;;;;5.60;2.80;;;;;;;16.45;100.00;100990.94;5055198;28;20564;-69
2023/09/11 02:08:23;;;;;;;4.97;2.60;;;;;;;16.49;100.00;100996.53;5056196;28;20470;-69
2023/09/11 02:10:50;;;;;;;5.97;3.07;;;;;;;16.48;100.00;100992.22;5055386;28;20453;-69
2023/09/11 02:13:16;;;;;;;5.60;3.17;;;;;;;16.46;100.00;100991.72;5055374;28;20466;-69
2023/09/11 02:15:43;;;;;;;7.30;3.03;;;;;;;16.45;100.00;100996.41;5055006;28;20973;-69
2023/09/11 02:18:10;;;;;;;5.60;2.60;;;;;;;16.42;100.00;100993.50;5055285;28;20532;-71
2023/09/11 02:20:38;;;;;;;4.97;2.70;;;;;;;16.39;100.00;100992.25;5055280;28;20434;-71
2023/09/11 02:23:05;;;;;;;4.83;2.43;;;;;;;16.38;100.00;100994.19;5054924;28;20801;-70
2023/09/11 02:25:32;;;;;;;4.50;2.50;;;;;;;16.30;100.00;100995.03;5054911;28;20434;-69
2023/09/11 02:27:58;;;;;;;6.50;2.93;;;;;;;16.30;100.00;100992.31;5054711;28;20474;-69
2023/09/11 02:30:25;;;;;;;6.50;3.17;;;;;;;16.30;100.00;100994.25;5055064;28;20530;-69
2023/09/11 02:32:52;;;;;;;3.77;2.00;;;;;;;16.28;100.00;100989.09;5054644;28;20451;-69
2023/09/11 02:35:18;;;;;;;6.10;2.90;;;;;;;16.30;100.00;100992.31;5054882;28;20464;-69
2023/09/11 02:37:46;;;;;;;6.37;2.67;;;;;;;16.31;100.00;100996.63;5055043;28;20427;-69
2023/09/11 02:40:13;;;;;;;4.73;2.67;;;;;;;16.29;100.00;100987.97;5055164;28;20435;-69
2023/09/11 02:42:40;;;;;;;5.73;2.80;;;;;;;16.30;100.00;101003.25;5055189;28;20449;-69
2023/09/11 02:45:07;;;;;;;8.60;3.70;;;;;;;16.31;100.00;100999.38;5054405;28;20960;-69
2023/09/11 02:47:34;;;;;;;7.67;2.57;;;;;;;16.28;100.00;100991.81;5054211;28;20495;-69
2023/09/11 02:50:00;;;;;;;6.23;3.30;;;;;;;16.28;100.00;100997.28;5054566;28;20461;-70
2023/09/11 02:52:27;;;;;;;6.07;2.37;;;;;;;16.23;100.00;100991.22;5054359;28;20957;-70
2023/09/11 02:54:55;;;;;;;6.20;3.60;;;;;;;16.18;100.00;100988.66;5054215;28;20450;-70
2023/09/11 02:57:21;;;;;;;5.37;2.80;;;;;;;16.15;100.00;100992.84;5054154;28;20504;-70
2023/09/11 02:59:48;;;;;;;7.83;3.67;;;;;;;16.13;100.00;100993.19;5054437;28;20442;-71
2023/09/11 03:02:15;;;;;;;5.97;3.13;;;;;;;16.10;100.00;100984.84;5054306;28;20442;-70
2023/09/11 03:04:41;;;;;;;6.93;3.40;;;;;;;16.11;100.00;100994.63;5054303;28;20537;-70
2023/09/11 03:07:08;;;;;;;5.70;2.50;;;;;;;16.10;100.00;100993.03;5054054;28;20568;-70
2023/09/11 03:09:34;;;;;;;4.70;2.33;;;;;;;16.06;100.00;100992.09;5054112;28;20474;-70
2023/09/11 03:12:02;;;;;;;4.23;2.20;;;;;;;16.04;100.00;100988.88;5053794;28;20438;-70
2023/09/11 03:14:29;;;;;;;6.50;3.50;;;;;;;16.01;100.00;100975.88;5054111;28;20468;-70
2023/09/11 03:16:55;;;;;;;7.77;3.50;;;;;;;16.03;100.00;100984.56;5053696;28;20962;-70
2023/09/11 03:19:22;;;;;;;5.40;2.67;;;;;;;15.99;100.00;100983.59;5054052;28;20434;-70
2023/09/11 03:21:49;;;;;;;6.80;3.30;;;;;;;15.96;100.00;100987.78;5054018;28;20442;-70
2023/09/11 03:24:15;;;;;;;7.47;3.90;;;;;;;15.95;100.00;100986.19;5053937;28;20522;-70
2023/09/11 03:26:42;;;;;;;5.10;3.20;;;;;;;15.93;100.00;100982.16;5053785;28;20571;-70
2023/09/11 03:29:10;;;;;;;7.27;3.33;;;;;;;15.94;100.00;100983.75;5054157;28;20448;-69
2023/09/11 03:31:36;;;;;;;7.60;3.87;;;;;;;15.86;100.00;100982.69;5053854;28;20526;-69
2023/09/11 03:34:03;;;;;;;5.10;2.63;;;;;;;15.83;100.00;100975.94;5053463;28;20438;-69
2023/09/11 03:36:29;;;;;;;6.80;3.97;;;;;;;15.84;100.00;100979.47;5053370;28;20486;-68
2023/09/11 03:38:56;;;;;;;6.80;3.00;;;;;;;15.83;100.00;100981.41;5053401;28;20934;-69
2023/09/11 03:41:23;;;;;;;5.57;2.27;;;;;;;15.85;100.00;100981.88;5053696;28;20443;-70
2023/09/11 03:43:49;;;;;;;5.23;2.70;;;;;;;15.81;100.00;100980.94;5053720;28;20525;-70
2023/09/11 03:46:17;;;;;;;5.20;2.33;;;;;;;15.79;100.00;100983.19;5053483;28;20553;-70
2023/09/11 03:48:44;;;;;;;4.57;2.57;;;;;;;15.71;100.00;100977.75;5053604;28;20440;-70
2023/09/11 03:51:10;;;;;;;6.33;3.00;;;;;;;15.78;100.00;100970.66;5053525;28;20438;-70
2023/09/11 03:53:42;;;;;;;6.17;2.73;;;;;;;15.77;100.00;100968.25;5053646;28;20533;-72
2023/09/11 03:56:09;;;;;;;6.10;2.93;;;;;;;15.75;100.00;100960.38;5053726;28;20462;-72
2023/09/11 03:58:36;;;;;;;4.53;2.57;;;;;;;15.79;100.00;100976.91;5053508;28;20442;-72
2023/09/11 04:01:02;;;;;;;4.67;2.50;;;;;;;15.75;100.00;100971.31;5053447;28;20529;-72
2023/09/11 04:03:30;;;;;;;4.70;3.03;;;;;;;15.76;100.00;100977.56;5053375;28;20809;-72
2023/09/11 04:05:57;;;;;;;4.80;2.60;;;;;;;15.75;100.00;100971.31;5053426;28;20533;-71
2023/09/11 04:08:23;;;;;;;4.40;2.47;;;;;;;15.80;100.00;100973.84;5053053;28;20481;-71
2023/09/11 04:10:50;;;;;;;5.57;2.70;;;;;;;15.79;100.00;100968.72;5053436;28;20484;-72
2023/09/11 04:13:17;;;;;;;6.50;2.70;;;;;;;15.73;100.00;100965.38;5053072;28;20446;-71
2023/09/11 04:15:44;;;;;;;4.40;2.13;;;;;;;15.71;100.00;100964.09;5053157;28;20466;-71
2023/09/11 04:18:11;;;;;;;4.93;2.63;;;;;;;15.70;100.00;100973.41;5053283;28;20440;-71
2023/09/11 04:20:39;;;;;;;6.47;3.47;;;;;;;15.66;100.00;100972.47;5054493;28;20442;-71
2023/09/11 04:23:05;;;;;;;4.60;2.40;;;;;;;15.60;100.00;100969.06;5055300;28;20530;-71
2023/09/11 04:25:33;;;;;;;6.47;3.10;;;;;;;15.58;100.00;100977.59;5057213;28;20446;-71
2023/09/11 04:27:59;;;;;;;6.83;3.17;;;;;;;15.59;100.00;100972.94;5057532;28;20486;-71
2023/09/11 04:30:26;;;;;;;6.67;3.03;;;;;;;15.54;100.00;100975.84;5057255;28;20870;-71
2023/09/11 04:32:53;;;;;;;6.43;3.60;;;;;;;15.41;100.00;100971.38;5057437;28;20537;-72
2023/09/11 04:35:20;;;;;;;5.67;3.00;;;;;;;15.43;100.00;100966.38;5057023;28;20442;-72
2023/09/11 04:37:48;;;;;;;6.43;3.50;;;;;;;15.33;100.00;100965.59;5057012;28;20433;-72
2023/09/11 04:40:15;;;;;;;6.63;2.17;;;;;;;15.34;100.00;100966.41;5057075;28;20448;-72
2023/09/11 04:42:43;;;;;;;5.77;3.03;;;;;;;15.34;100.00;100966.41;5056746;28;20481;-72
2023/09/11 04:45:10;;;;;;;6.63;3.63;;;;;;;15.35;100.00;100968.00;5056981;28;20460;-72
2023/09/11 04:47:37;;;;;;;5.70;3.13;;;;;;;15.37;100.00;100965.75;5056748;28;20487;-72
2023/09/11 04:50:04;;;;;;;5.40;2.63;;;;;;;15.28;100.00;100973.16;5056578;28;20846;-72
2023/09/11 04:52:31;;;;;;;5.30;3.00;;;;;;;15.32;100.00;100972.19;5056758;28;20438;-72
2023/09/11 04:54:59;;;;;;;5.60;2.53;;;;;;;15.33;100.00;100968.31;5056605;28;20942;-72
2023/09/11 04:57:26;;;;;;;4.50;2.20;;;;;;;15.32;100.00;100972.19;5056756;28;20453;-72
2023/09/11 04:59:52;;;;;;;5.80;3.00;;;;;;;15.32;100.00;100963.19;5056653;28;20541;-72
2023/09/11 05:02:19;;;;;;;6.43;3.00;;;;;;;15.31;100.00;100965.09;5056968;28;20528;-72
2023/09/11 05:04:47;;;;;;;5.27;2.80;;;;;;;15.33;100.00;100962.06;5056569;28;20449;-72
2023/09/11 05:07:13;;;;;;;6.40;3.37;;;;;;;15.34;100.00;100974.59;5056390;28;20498;-72
2023/09/11 05:09:40;;;;;;;6.57;3.03;;;;;;;15.32;100.00;100964.00;5056117;28;20874;-72
2023/09/11 05:12:08;;;;;;;5.20;2.77;;;;;;;15.40;100.00;100965.09;5056449;28;20446;-72
2023/09/11 05:14:35;;;;;;;5.73;2.57;;;;;;;15.40;100.00;100959.63;5056440;28;20449;-72
2023/09/11 05:17:01;;;;;;;6.20;3.00;;;;;;;15.37;100.00;100961.09;5056339;28;20468;-71
2023/09/11 05:19:28;;;;;;;5.73;2.67;;;;;;;15.36;100.00;100964.13;5056565;28;20445;-71
2023/09/11 05:21:54;;;;;;;5.53;3.13;;;;;;;15.40;100.00;100965.09;5056365;28;20438;-72
2023/09/11 05:24:21;;;;;;;5.33;2.70;;;;;;;15.45;100.00;100975.03;5056365;28;20524;-71
2023/09/11 05:26:48;;;;;;;5.60;2.90;;;;;;;15.45;100.00;100967.69;5055479;28;20556;-71
2023/09/11 05:29:16;;;;;;;5.47;3.40;;;;;;;15.52;100.00;100967.16;5055882;28;20527;-71
2023/09/11 05:31:42;;;;;;;6.50;3.10;;;;;;;15.53;100.00;100964.09;5055997;28;20438;-71
2023/09/11 05:34:09;;;;;;;5.47;2.80;;;;;;;15.58;100.00;100968.59;5055810;28;20560;-72
2023/09/11 05:36:35;;;;;;;9.00;4.10;;;;;;;15.62;100.00;100975.00;5055524;28;20485;-72
2023/09/11 05:39:03;;;;;;;6.20;3.37;;;;;;;15.62;100.00;100977.72;5055132;28;20484;-69
2023/09/11 05:41:29;;;;;;;5.70;2.90;;;;;;;15.67;100.00;100966.69;5055671;28;20930;-71
2023/09/11 05:43:56;;;;;;;7.40;3.20;;;;;;;15.77;100.00;100965.53;5056034;28;20525;-71
2023/09/11 05:46:24;;;;;;;5.90;2.43;;;;;;;15.83;100.00;100972.41;5055182;28;20565;-71
2023/09/11 05:48:51;;;;;;;6.70;3.43;;;;;;;15.88;100.00;100969.50;5055310;28;20497;-71
2023/09/11 05:51:17;;;;;;;4.53;2.53;;;;;;;15.98;100.00;100969.16;5055448;28;20967;-72
2023/09/11 05:53:44;;;;;;;6.93;3.07;;;;;;;16.06;100.00;100968.28;5055527;28;20500;-71
2023/09/11 05:56:11;;;;;;;6.53;2.80;;;;;;;16.16;100.00;100969.88;5088674;22;20572;-79
2023/09/11 05:58:38;;;;;;;6.50;3.60;;;;;;;16.25;100.00;100965.16;5100687;28;20445;-79
2023/09/11 06:01:06;;;;;;;7.23;3.40;;;;;;;16.32;100.00;100962.69;5102536;22;20577;-71
2023/09/11 06:03:34;;;;;;;5.67;3.20;;;;;;;16.42;100.00;100957.97;5055930;28;20457;-71
2023/09/11 06:06:01;;;;;;;6.33;2.43;;;;;;;16.53;100.00;100968.19;5055731;28;20518;-71
2023/09/11 06:08:28;;;;;;;5.70;3.00;;;;;;;16.60;100.00;100973.97;5055795;28;20509;-71
2023/09/11 06:10:54;;;;;;;9.30;4.00;;;;;;;16.68;100.00;100968.75;5055800;28;20449;-71
2023/09/11 06:13:21;;;;;;;6.00;3.50;;;;;;;16.79;100.00;100970.78;5055748;28;20949;-72
2023/09/11 06:15:47;;;;;;;5.93;3.17;;;;;;;16.87;100.00;100966.41;5055653;28;20549;-71
2023/09/11 06:18:14;;;;;;;6.73;3.10;;;;;;;16.95;100.00;100970.19;5055190;28;20980;-71
2023/09/11 06:20:42;;;;;;;5.17;3.17;;;;;;;17.05;100.00;100978.00;5055574;28;20530;-71
2023/09/11 06:23:10;;;;;;;5.07;2.70;;;;;;;17.15;100.00;100972.91;5055773;28;20473;-71
2023/09/11 06:25:36;;;;;;;5.30;2.80;;;;;;;17.24;100.00;100975.56;5054941;28;20446;-70
2023/09/11 06:28:03;;;;;;;7.00;2.83;;;;;;;17.32;100.00;100971.94;5055576;28;20569;-70
2023/09/11 06:30:31;;;;;;;6.20;3.67;;;;;;;17.42;100.00;100970.72;5054603;28;20458;-70
2023/09/11 06:32:58;;;;;;;5.67;3.27;;;;;;;17.54;100.00;100969.97;5055389;28;20521;-70
2023/09/11 06:35:24;;;;;;;4.17;2.87;;;;;;;17.64;100.00;100972.25;5055129;28;20446;-70
2023/09/11 06:37:52;;;;;;;7.70;3.67;;;;;;;17.73;100.00;100963.94;5054643;28;20545;-70
2023/09/11 06:40:19;;;;;;;5.60;3.30;;;;;;;17.82;100.00;100968.22;5054861;28;21037;-70
2023/09/11 06:42:45;;;;;;;8.50;3.60;;;;;;;17.92;100.00;100966.16;5055251;28;20441;-70
2023/09/11 06:45:12;;;;;;;9.67;4.07;;;;;;;18.00;100.00;100963.31;5054315;28;20564;-70
2023/09/11 06:47:39;;;;;;;7.70;3.70;;;;;;;18.13;100.00;100966.88;5054579;28;20603;-70
2023/09/11 06:50:06;;;;;;;6.17;3.57;;;;;;;18.21;100.00;100967.91;5054616;28;20473;-70
2023/09/11 06:52:38;;;;;;;5.60;2.90;;;;;;;18.32;100.00;100964.34;5055202;28;20525;-70
2023/09/11 06:55:07;;;;;;;7.97;4.27;;;;;;;18.45;100.00;100962.38;5055029;28;20430;-71
2023/09/11 06:57:34;;;;;;;8.93;3.87;;;;;;;18.56;100.00;100963.53;5054372;28;20524;-72
2023/09/11 07:00:01;;;;;;;5.23;3.00;;;;;;;18.67;100.00;100963.84;5054662;28;20447;-72
2023/09/11 07:02:27;;;;;;;5.63;3.07;;;;;;;18.78;100.00;100955.97;5054149;28;20553;-71
2023/09/11 07:04:54;;;;;;;8.60;4.43;;;;;;;18.90;100.00;100962.22;5054782;28;20438;-71
2023/09/11 07:07:20;;;;;;;8.00;3.70;;;;;;;19.02;100.00;100955.88;5054217;28;20990;-71
2023/09/11 07:09:48;;;;;;;9.40;4.63;;;;;;;19.13;100.00;100956.19;5054957;28;20527;-71
2023/09/11 07:12:20;;;;;;;9.17;3.83;;;;;;;19.25;100.00;100956.09;5054661;28;20446;-71
2023/09/11 07:14:47;;;;;;;6.73;4.03;;;;;;;19.35;100.00;100963.88;5054182;28;20429;-73
2023/09/11 07:17:13;;;;;;;5.47;3.57;;;;;;;19.49;100.00;100968.16;5053312;28;20964;-73
2023/09/11 07:19:41;;;;;;;8.43;3.97;;;;;;;19.62;100.00;100961.47;5054326;28;20525;-71
2023/09/11 07:22:07;;;;;;;6.80;3.67;;;;;;;19.76;100.00;100959.06;5054311;28;20438;-71
2023/09/11 07:24:34;;;;;;;5.63;2.87;;;;;;;19.85;100.00;100962.44;5054435;28;20533;-71
2023/09/11 07:27:01;;;;;;;9.53;4.43;;;;;;;19.95;100.00;100963.84;5053281;28;20502;-71
2023/09/11 07:29:29;;;;;;;5.27;3.53;;;;;;;20.05;100.00;100960.56;5053992;28;20484;-70
2023/09/11 07:31:56;;;;;;;7.87;4.60;;;;;;;20.28;100.00;100968.97;5054162;28;20540;-70
2023/09/11 07:34:22;;;;;;;6.13;3.33;;;;;;;20.56;100.00;100968.06;5053970;28;20470;-70
2023/09/11 07:36:49;;;;;;;5.47;3.17;;;;;;;20.87;96.94;100970.69;5053217;28;20940;-70
2023/09/11 07:39:15;;;;;;;5.70;3.10;;;;;;;21.01;97.18;100966.66;5053723;28;20465;-70
2023/09/11 07:41:42;;;;;;;5.83;3.10;;;;;;;21.10;97.20;100969.97;5054078;28;20434;-70
2023/09/11 07:44:09;;;;;;;10.40;3.97;;;;;;;21.17;97.13;100970.94;5053246;28;20989;-70
2023/09/11 07:46:36;;;;;;;7.07;4.00;;;;;;;;;;5053745;28;20541;-70
2023/09/11 07:49:03;;;;;;;5.50;3.30;;;;;;;21.40;95.32;100973.75;5053351;28;20484;-70
2023/09/11 07:51:30;;;;;;;6.30;3.33;;;;;;;21.52;94.12;100969.25;5053637;28;20529;-70
2023/09/11 07:53:58;;;;;;;4.60;2.60;;;;;;;21.63;93.82;100970.22;5053690;28;20517;-70
2023/09/11 07:56:25;;;;;;;6.60;3.73;;;;;;;21.79;90.34;100979.19;5053602;28;20835;-70
2023/09/11 07:58:52;;;;;;;5.17;3.13;;;;;;;21.96;89.44;100979.84;5053920;28;20445;-70
2023/09/11 08:01:19;;;;;;;6.30;3.27;;;;;;;22.17;87.68;100975.50;5053251;28;20986;-70
2023/09/11 08:03:47;;;;;;;5.37;3.40;;;;;;;22.37;85.49;100970.69;5053466;28;20914;-70
2023/09/11 08:06:14;;;;;;;6.33;3.60;;;;;;;22.57;84.66;100967.78;5053142;28;20505;-70
2023/09/11 08:08:41;;;;;;;5.80;2.57;;;;;;;22.77;83.69;100968.47;5053580;28;20508;-70
2023/09/11 08:11:15;;;;;;;6.90;3.50;;;;;;;22.95;82.21;100963.19;5053399;28;20496;-70
2023/09/11 08:13:41;;;;;;;6.80;3.47;;;;;;;23.05;81.95;100957.00;5053491;28;20885;-70
2023/09/11 08:16:08;;;;;;;4.93;2.77;;;;;;;23.07;82.42;100963.75;5052700;28;20573;-70
2023/09/11 08:18:34;;;;;;;5.60;2.77;;;;;;;23.06;82.09;100953.06;5053250;28;20525;-70
2023/09/11 08:21:02;;;;;;;6.93;3.70;;;;;;;23.09;80.87;100955.06;5053120;28;20861;-70
2023/09/11 08:23:29;;;;;;;6.73;4.20;;;;;;;23.23;80.49;100958.00;5053258;28;20434;-71
2023/09/11 08:25:59;;;;;;;5.67;3.40;;;;;;;23.45;78.72;100956.25;5053201;28;20523;-70
2023/09/11 08:28:26;;;;;;;7.57;3.97;;;;;;;23.52;79.68;100958.31;5053343;28;20493;-70
2023/09/11 08:30:53;;;;;;;5.23;2.97;;;;;;;23.56;80.41;100956.38;5053090;28;20484;-70
2023/09/11 08:33:20;;;;;;;8.10;3.80;;;;;;;23.59;81.26;100952.81;5053031;28;20967;-70
2023/09/11 08:35:47;;;;;;;4.47;3.00;;;;;;;23.62;81.67;100957.59;5052582;28;20981;-70
2023/09/11 08:38:15;;;;;;;7.50;3.97;;;;;;;23.64;81.53;100958.00;5052533;28;20458;-70
2023/09/11 08:40:43;;;;;;;5.60;2.80;;;;;;;23.78;79.02;100955.41;5052505;28;20472;-70
2023/09/11 08:43:10;;;;;;;5.90;2.93;;;;;;;23.96;78.11;100955.56;5052897;28;20442;-70
2023/09/11 08:45:38;;;;;;;5.50;2.80;;;;;;;24.06;76.32;100954.84;5052893;28;20864;-70
2023/09/11 08:48:09;;;;;;;5.63;3.03;;;;;;;24.17;75.91;100957.69;5052459;28;20486;-70
2023/09/11 08:50:40;;;;;;;4.60;2.33;;;;;;;24.39;71.28;100956.69;5052667;28;20929;-71
2023/09/11 08:53:08;;;;;;;4.97;2.97;;;;;;;24.59;70.63;100961.94;5052849;28;20445;-71
2023/09/11 08:55:38;;;;;;;4.47;2.80;;;;;;;24.71;70.01;100958.06;5052761;28;20477;-71
2023/09/11 08:58:09;;;;;;;4.73;2.87;;;;;;;24.89;69.43;100959.72;5052426;28;20480;-70
2023/09/11 09:00:36;;;;;;;4.63;2.73;;;;;;;25.06;69.23;100960.19;5052939;28;20437;-70
2023/09/11 09:03:03;;;;;;;4.60;2.43;;;;;;;25.22;64.96;100968.16;5052860;28;20447;-70
2023/09/11 09:05:32;;;;;;;4.20;2.43;;;;;;;25.38;65.51;100966.63;5053039;28;20435;-69
2023/09/11 09:07:59;;;;;;;4.20;2.67;;;;;;;25.45;65.42;100967.81;5052386;28;20454;-70
2023/09/11 09:10:26;;;;;;;4.33;2.67;;;;;;;25.47;69.00;100955.16;5056487;28;20524;-69
2023/09/11 09:12:55;;;;;;;6.17;2.60;;;;;;;25.53;66.08;100958.31;5056447;28;20521;-70
2023/09/11 09:15:22;;;;;;;5.07;3.20;;;;;;;25.64;62.28;100965.50;5056329;28;20495;-70
2023/09/11 09:17:49;;;;;;;5.23;2.60;;;;;;;25.76;62.12;100950.44;5055409;28;20927;-70
2023/09/11 09:20:17;;;;;;;5.57;2.80;;;;;;;25.91;62.26;100956.81;5055901;28;20481;-70
2023/09/11 09:22:55;;;;;;;7.70;3.30;;;;;;;26.06;60.48;100957.59;5055865;28;20464;-69
2023/09/11 09:25:22;;;;;;;5.93;3.07;;;;;;;26.19;59.68;100955.97;5056148;28;20503;-69
2023/09/11 09:27:48;;;;;;;5.67;3.30;;;;;;;26.36;58.88;100957.16;5055632;28;20482;-69
2023/09/11 09:30:24;;;;;;;4.10;2.40;;;;;;;26.38;60.37;100951.97;5055425;28;20458;-69
2023/09/11 09:32:52;;;;;;;5.83;2.70;;;;;;;26.41;59.35;100945.63;5055671;28;20445;-68
2023/09/11 09:35:21;;;;;;;3.73;2.30;;;;;;;26.49;59.82;100952.78;5055595;28;20458;-68
2023/09/11 09:37:52;;;;;;;4.43;2.83;;;;;;;26.54;59.06;100940.47;5055223;28;20480;-68
2023/09/11 09:40:30;;;;;;;5.00;2.57;;;;;;;26.56;59.09;100935.28;5055819;28;20513;-68
2023/09/11 09:42:58;;;;;;;4.60;2.50;;;;;;;26.62;60.28;100930.91;5055735;28;20456;-68
2023/09/11 09:45:33;;;;;;;5.23;3.27;;;;;;;26.72;56.79;100927.28;5055419;28;20461;-68
2023/09/11 09:48:06;;;;;;;4.10;2.43;;;;;;;26.88;58.64;100926.84;5055628;28;20889;-68
2023/09/11 09:50:47;;;;;;;7.83;3.40;;;;;;;26.90;57.10;100928.00;5055362;28;20476;-68
2023/09/11 09:53:24;;;;;;;5.63;3.00;;;;;;;27.02;55.10;100928.75;5055458;28;20821;-67
2023/09/11 09:55:51;;;;;;;4.87;2.80;;;;;;;27.20;53.16;100918.34;5055321;28;20540;-67
2023/09/11 09:58:19;;;;;;;4.50;2.60;;;;;;;27.36;53.30;100912.28;5054895;28;20465;-67
2023/09/11 10:00:49;;;;;;;4.13;2.23;;;;;;;27.42;50.87;100913.44;5054701;28;20458;-67
2023/09/11 10:03:15;;;;;;;4.73;2.73;;;;;;;27.48;52.20;100903.44;5055248;28;20427;-69
2023/09/11 10:05:42;;;;;;;5.30;2.83;;;;;;;27.55;51.52;100906.16;5054782;28;20989;-68
2023/09/11 10:08:09;;;;;;;3.90;2.30;;;;;;;27.58;49.99;100905.34;5053899;28;20473;-68
2023/09/11 10:10:35;;;;;;;4.60;2.50;;;;;;;27.67;51.71;100902.09;5054281;28;20458;-68
2023/09/11 10:13:06;;;;;;;4.37;2.70;;;;;;;27.82;48.91;100895.22;5054552;28;20450;-68
2023/09/11 10:15:35;;;;;;;4.17;2.13;;;;;;;27.87;49.23;100892.00;5054607;28;20553;-68
2023/09/11 10:18:04;;;;;;;3.67;1.83;;;;;;;27.88;49.22;100888.00;5054505;28;20461;-68
2023/09/11 10:20:31;;;;;;;5.90;2.77;;;;;;;27.86;50.19;100886.84;5052212;28;20478;-68
2023/09/11 10:23:01;;;;;;;7.00;2.27;;;;;;;27.91;50.35;100889.19;5053398;28;20458;-68
2023/09/11 10:25:30;;;;;;;10.03;3.20;;;;;;;27.79;49.81;100878.53;5053764;28;20818;-67
2023/09/11 10:28:02;;;;;;;6.60;2.70;;;;;;;27.77;49.59;100890.09;5052310;28;20454;-67
2023/09/11 10:30:35;;;;;;;4.73;2.93;;;;;;;27.94;49.19;100879.22;5051969;28;20557;-67
2023/09/11 10:33:09;;;;;;;3.80;2.10;;;;;;;27.81;49.01;100874.16;5053941;28;20544;-67
2023/09/11 10:35:41;;;;;;;4.93;2.73;;;;;;;28.00;48.46;100872.00;5053477;28;20500;-69
2023/09/11 10:38:09;;;;;;;5.07;3.10;;;;;;;28.06;51.64;100873.88;5051450;28;20472;-68
2023/09/11 10:40:36;;;;;;;5.00;2.80;;;;;;;28.25;48.13;100869.72;5034851;28;20479;-67
2023/09/11 10:43:04;;;;;;;4.13;2.53;;;;;;;28.47;47.31;100875.09;5034798;28;20530;-67
2023/09/11 10:45:33;;;;;;;5.60;2.53;;;;;;;28.68;45.34;100874.78;5034393;28;20435;-67
2023/09/11 10:47:59;;;;;;;6.67;2.33;;;;;;;28.77;45.25;100869.47;5034454;28;20962;-67
2023/09/11 10:50:35;;;;;;;4.03;2.23;;;;;;;28.90;47.32;100870.50;5034643;28;20483;-67
2023/09/11 10:53:05;;;;;;;3.90;2.40;;;;;;;29.06;46.88;100869.91;5034347;28;20755;-67
2023/09/11 10:55:32;;;;;;;5.07;2.80;;;;;;;29.16;46.58;100859.78;5034513;28;20470;-67
2023/09/11 10:57:58;;;;;;;4.57;2.93;;;;;;;29.21;48.62;100856.53;5034574;28;20445;-67
2023/09/11 11:00:26;;;;;;;3.93;2.13;;;;;;;29.31;44.61;100865.97;5034194;28;21049;-67
2023/09/11 11:02:56;;;;;;;4.33;2.10;;;;;;;29.48;42.80;100858.47;5034087;28;20450;-67
2023/09/11 11:05:22;;;;;;;4.67;2.70;;;;;;;29.48;44.80;100856.47;5034364;28;20451;-67
2023/09/11 11:07:51;;;;;;;4.40;2.53;;;;;;;29.60;44.06;100846.75;5034362;28;20444;-69
2023/09/11 11:10:20;;;;;;;3.50;2.13;;;;;;;29.75;43.25;100856.47;5034308;28;20479;-67
2023/09/11 11:12:47;;;;;;;4.60;2.10;;;;;;;30.07;42.07;100861.44;5034038;28;20931;-67
2023/09/11 11:15:22;;;;;;;4.63;2.73;;;;;;;30.51;40.30;100856.59;5034304;28;20445;-67
2023/09/11 11:18:05;;;;;;;3.60;2.00;;;;;;;31.09;40.31;100856.91;5033930;28;20442;-67
2023/09/11 11:20:32;;;;;;;3.63;1.90;;;;;;;31.87;41.33;100847.81;5034063;28;20518;-67
2023/09/11 11:23:09;;;;;;;4.07;2.37;;;;;;;32.35;40.04;100852.44;5034407;28;20443;-66